createdAt,value
2019-01-22T00:00:32.593Z,-7.60
2019-01-22T00:02:59.947Z,-7.50
2019-01-22T00:05:27.310Z,-7.60
2019-01-22T00:07:54.762Z,-7.70
2019-01-22T00:10:21.974Z,-7.80
2019-01-22T00:12:49.314Z,-7.70
2019-01-22T00:15:16.850Z,-7.80
2019-01-22T00:17:44.103Z,-7.90
2019-01-22T00:20:11.835Z,-7.80
2019-01-22T00:22:39.186Z,-7.90
2019-01-22T00:25:08.098Z,-7.90
2019-01-22T00:27:35.539Z,-7.80
2019-01-22T00:30:04.457Z,-7.80
2019-01-22T00:32:31.917Z,-7.80
2019-01-22T00:34:59.269Z,-7.90
2019-01-22T00:37:26.737Z,-7.90
2019-01-22T00:39:54.070Z,-8.00
2019-01-22T00:42:21.432Z,-8.00
2019-01-22T00:44:48.789Z,-8.00
2019-01-22T00:47:16.418Z,-8.10
2019-01-22T00:49:43.643Z,-8.10
2019-01-22T00:52:11.089Z,-8.20
2019-01-22T00:54:38.310Z,-8.30
2019-01-22T00:57:05.526Z,-8.20
2019-01-22T00:59:32.773Z,-8.20
2019-01-22T01:02:00.510Z,-8.20
2019-01-22T01:04:27.922Z,-8.30
2019-01-22T01:06:55.293Z,-8.30
2019-01-22T01:09:22.625Z,-8.30
2019-01-22T01:11:49.858Z,-8.30
2019-01-22T01:14:17.194Z,-8.20
2019-01-22T01:16:44.434Z,-8.20
2019-01-22T01:19:12.094Z,-8.20
2019-01-22T01:21:39.453Z,-8.30
2019-01-22T01:24:06.674Z,-8.30
2019-01-22T01:26:34.011Z,-8.40
2019-01-22T01:29:01.249Z,-8.40
2019-01-22T01:31:28.515Z,-8.40
2019-01-22T01:33:56.262Z,-8.40
2019-01-22T01:36:23.714Z,-8.50
2019-01-22T01:38:51.030Z,-8.50
2019-01-22T01:41:18.493Z,-8.50
2019-01-22T01:43:45.950Z,-8.40
2019-01-22T01:46:13.205Z,-8.40
2019-01-22T01:48:40.453Z,-8.30
2019-01-22T01:51:08.013Z,-8.30
2019-01-22T01:53:35.246Z,-8.30
2019-01-22T01:56:02.497Z,-8.40
2019-01-22T01:58:29.850Z,-8.40
2019-01-22T02:00:57.193Z,-8.40
2019-01-22T02:03:24.542Z,-8.50
2019-01-22T02:05:51.793Z,-8.40
2019-01-22T02:08:19.241Z,-8.30
2019-01-22T02:10:46.471Z,-8.30
2019-01-22T02:13:21.505Z,-8.30
2019-01-22T02:16:07.090Z,-8.30
2019-01-22T02:18:50.513Z,-8.30
2019-01-22T02:21:55.490Z,-8.50
2019-01-22T02:24:52.058Z,-8.50
2019-01-22T02:27:49.772Z,-8.50
2019-01-22T02:30:37.697Z,-8.60
2019-01-22T02:33:36.691Z,-8.60
2019-01-22T02:36:38.865Z,-8.60
2019-01-22T02:39:43.898Z,-8.60
2019-01-22T02:42:37.271Z,-8.70
2019-01-22T02:45:24.682Z,-8.80
2019-01-22T02:48:14.370Z,-8.90
2019-01-22T02:51:19.557Z,-8.90
2019-01-22T02:54:17.919Z,-8.90
2019-01-22T02:57:23.132Z,-9.00
2019-01-22T03:00:39.886Z,-9.00
2019-01-22T03:03:49.886Z,-9.00
2019-01-22T03:07:05.153Z,-9.10
2019-01-22T03:10:11.023Z,-9.20
2019-01-22T03:12:57.650Z,-9.10
2019-01-22T03:15:48.958Z,-9.20
2019-01-22T03:18:54.212Z,-9.20
2019-01-22T03:21:34.343Z,-9.10
2019-01-22T03:24:40.750Z,-9.10
2019-01-22T03:27:46.474Z,-9.10
2019-01-22T03:30:49.826Z,-9.10
2019-01-22T03:34:10.943Z,-9.30
2019-01-22T03:37:20.731Z,-9.40
2019-01-22T03:40:10.325Z,-9.30
2019-01-22T03:43:01.825Z,-9.30
2019-01-22T03:45:58.147Z,-9.20
2019-01-22T03:49:10.105Z,-9.20
2019-01-22T03:52:04.225Z,-9.30
2019-01-22T03:54:54.237Z,-9.30
2019-01-22T03:57:25.930Z,-9.20
2019-01-22T03:59:53.311Z,-9.10
2019-01-22T04:02:22.334Z,-9.20
2019-01-22T04:04:49.581Z,-9.20
2019-01-22T04:07:16.814Z,-9.10
2019-01-22T04:10:03.351Z,-9.10
2019-01-22T04:12:30.709Z,-9.10
2019-01-22T04:14:59.864Z,-9.10
2019-01-22T04:17:27.208Z,-9.20
2019-01-22T04:19:54.974Z,-9.30
2019-01-22T04:22:34.235Z,-9.40
2019-01-22T04:25:17.464Z,-9.50
2019-01-22T04:28:34.943Z,-9.40
2019-01-22T04:31:17.200Z,-9.50
2019-01-22T04:34:24.525Z,-9.50
2019-01-22T04:37:20.918Z,-9.40
2019-01-22T04:40:15.578Z,-9.40
2019-01-22T04:43:04.369Z,-9.50
2019-01-22T04:46:31.925Z,-9.50
2019-01-22T04:49:43.663Z,-9.50
2019-01-22T04:52:22.250Z,-9.60
2019-01-22T04:55:31.553Z,-9.60
2019-01-22T04:58:32.525Z,-9.60
2019-01-22T05:01:33.874Z,-9.60
2019-01-22T05:04:26.087Z,-9.50
2019-01-22T05:07:33.926Z,-9.50
2019-01-22T05:10:43.642Z,-9.60
2019-01-22T05:13:54.539Z,-9.70
2019-01-22T05:17:15.953Z,-9.70
2019-01-22T05:20:18.334Z,-9.70
2019-01-22T05:23:08.502Z,-9.80
2019-01-22T05:26:12.237Z,-9.90
2019-01-22T05:29:16.216Z,-9.80
2019-01-22T05:32:08.782Z,-9.60
2019-01-22T05:35:22.326Z,-9.80
2019-01-22T05:38:55.613Z,-9.80
2019-01-22T05:42:14.043Z,-9.70
2019-01-22T05:44:49.918Z,-9.80
2019-01-22T05:47:50.985Z,-9.70
2019-01-22T05:50:39.217Z,-9.70
2019-01-22T05:53:53.100Z,-9.80
2019-01-22T05:56:29.222Z,-9.80
2019-01-22T05:59:32.833Z,-9.80
2019-01-22T06:02:09.911Z,-9.80
2019-01-22T06:05:18.506Z,-9.70
2019-01-22T06:08:03.233Z,-9.60
2019-01-22T06:11:09.142Z,-9.60
2019-01-22T06:14:27.663Z,-9.60
2019-01-22T06:17:17.123Z,-9.60
2019-01-22T06:20:06.138Z,-9.70
2019-01-22T06:23:23.576Z,-9.60
2019-01-22T06:26:42.858Z,-9.70
2019-01-22T06:29:57.858Z,-9.80
2019-01-22T06:32:47.284Z,-9.90
2019-01-22T06:35:53.561Z,-9.90
2019-01-22T06:38:58.574Z,-9.90
2019-01-22T06:41:42.237Z,-9.80
2019-01-22T06:44:51.869Z,-9.80
2019-01-22T06:47:38.155Z,-9.90
2019-01-22T06:50:35.477Z,-9.90
2019-01-22T06:53:42.887Z,-9.90
2019-01-22T06:56:22.245Z,-9.90
2019-01-22T06:59:20.751Z,-9.90
2019-01-22T07:02:01.622Z,-9.80
2019-01-22T07:04:47.061Z,-9.90
2019-01-22T07:07:55.266Z,-10.00
2019-01-22T07:11:12.722Z,-9.80
2019-01-22T07:14:03.290Z,-9.80
2019-01-22T07:17:11.403Z,-9.90
2019-01-22T07:20:26.510Z,-9.80
2019-01-22T07:23:20.690Z,-9.70
2019-01-22T07:26:41.962Z,-9.30
2019-01-22T07:29:40.181Z,-9.10
2019-01-22T07:32:35.640Z,-8.80
2019-01-22T07:35:21.682Z,-8.70
2019-01-22T07:38:20.595Z,-8.60
2019-01-22T07:41:14.254Z,-8.50
2019-01-22T07:44:18.178Z,-8.40
2019-01-22T07:47:25.994Z,-8.20
2019-01-22T07:50:47.520Z,-8.10
2019-01-22T07:53:48.254Z,-8.00
2019-01-22T07:57:01.862Z,-7.90
2019-01-22T07:59:39.121Z,-7.80
2019-01-22T08:02:54.142Z,-7.70
2019-01-22T08:05:57.933Z,-7.60
2019-01-22T08:08:50.636Z,-7.10
2019-01-22T08:11:42.006Z,-6.90
2019-01-22T08:14:42.895Z,-7.10
2019-01-22T08:17:41.414Z,-7.00
2019-01-22T08:20:44.418Z,-6.40
2019-01-22T08:23:27.181Z,-6.00
2019-01-22T08:26:16.483Z,-5.70
2019-01-22T08:29:14.402Z,-5.90
2019-01-22T08:32:26.607Z,-6.10
2019-01-22T08:35:26.484Z,-6.20
2019-01-22T08:38:33.633Z,-5.90
2019-01-22T08:41:42.919Z,-5.90
2019-01-22T08:44:27.987Z,-5.60
2019-01-22T08:47:40.590Z,-5.30
2019-01-22T08:50:45.010Z,-5.60
2019-01-22T08:53:43.497Z,-5.70
2019-01-22T08:56:49.055Z,-5.70
2019-01-22T08:59:54.615Z,-5.80
2019-01-22T09:03:06.742Z,-5.70
2019-01-22T09:06:03.904Z,-5.70
2019-01-22T09:08:57.482Z,-5.70
2019-01-22T09:12:17.806Z,-5.70
2019-01-22T09:15:09.252Z,-5.70
2019-01-22T09:17:58.190Z,-5.50
2019-01-22T09:21:13.841Z,-5.40
2019-01-22T09:23:59.154Z,-5.20
2019-01-22T09:26:58.354Z,-5.00
2019-01-22T09:29:59.934Z,-4.90
2019-01-22T09:32:55.422Z,-4.70
2019-01-22T09:36:06.890Z,-4.60
2019-01-22T09:38:34.364Z,-4.30
2019-01-22T09:41:01.689Z,-4.20
2019-01-22T09:43:28.926Z,-4.10
2019-01-22T09:45:56.138Z,-3.90
2019-01-22T09:48:23.372Z,-3.80
2019-01-22T09:50:50.607Z,-3.60
2019-01-22T09:53:17.956Z,-3.70
2019-01-22T09:55:45.162Z,-3.70
2019-01-22T09:58:12.533Z,-3.40
2019-01-22T10:00:39.887Z,-3.40
2019-01-22T10:03:07.406Z,-3.40
2019-01-22T10:05:34.747Z,-3.50
2019-01-22T10:08:01.958Z,-3.50
2019-01-22T10:10:29.292Z,-3.60
2019-01-22T10:12:57.841Z,-3.70
2019-01-22T10:15:25.169Z,-3.70
2019-01-22T10:17:52.413Z,-3.60
2019-01-22T10:20:21.570Z,-3.80
2019-01-22T10:22:49.525Z,-3.70
2019-01-22T10:25:16.910Z,-3.80
2019-01-22T10:27:44.274Z,-3.80
2019-01-22T10:30:14.337Z,-3.70
2019-01-22T10:32:41.589Z,-3.50
2019-01-22T10:35:09.058Z,-3.40
2019-01-22T10:37:36.321Z,-3.40
2019-01-22T10:40:05.095Z,-3.50
2019-01-22T10:42:32.340Z,-3.70
2019-01-22T10:44:59.569Z,-3.70
2019-01-22T10:47:26.920Z,-3.90
2019-01-22T10:49:54.158Z,-3.90
2019-01-22T10:52:21.391Z,-4.10
2019-01-22T10:54:48.645Z,-4.40
2019-01-22T10:57:15.882Z,-4.30
2019-01-22T10:59:43.111Z,-4.10
2019-01-22T11:02:10.350Z,-4.00
2019-01-22T11:04:37.586Z,-3.80
2019-01-22T11:07:04.810Z,-3.90
2019-01-22T11:09:32.602Z,-3.50
2019-01-22T11:11:59.950Z,-3.60
2019-01-22T11:14:28.162Z,-3.40
2019-01-22T11:16:55.418Z,-3.20
2019-01-22T11:19:22.666Z,-3.30
2019-01-22T11:21:49.874Z,-3.20
2019-01-22T11:24:17.126Z,-3.20
2019-01-22T11:26:44.354Z,-2.90
2019-01-22T11:29:11.606Z,-2.90
2019-01-22T11:31:38.969Z,-3.00
2019-01-22T11:34:06.214Z,-3.00
2019-01-22T11:36:33.545Z,-2.50
2019-01-22T11:39:00.782Z,-2.30
2019-01-22T11:41:28.019Z,-2.30
2019-01-22T11:43:55.263Z,-2.50
2019-01-22T11:46:22.511Z,-2.20
2019-01-22T11:48:49.753Z,-1.90
2019-01-22T11:51:17.141Z,-1.80
2019-01-22T11:53:44.383Z,-1.60
2019-01-22T11:56:11.621Z,-1.40
2019-01-22T11:58:38.877Z,-1.30
2019-01-22T12:01:06.418Z,-1.10
2019-01-22T12:03:33.667Z,-1.30
2019-01-22T12:06:01.126Z,-1.20
2019-01-22T12:08:28.621Z,-1.30
2019-01-22T12:10:55.865Z,-1.30
2019-01-22T12:13:23.098Z,-1.70
2019-01-22T12:15:51.289Z,-1.70
2019-01-22T12:18:18.538Z,-1.80
2019-01-22T12:20:47.129Z,-1.50
2019-01-22T12:23:14.515Z,-1.40
2019-01-22T12:25:41.774Z,-1.20
2019-01-22T12:28:09.027Z,-1.30
2019-01-22T12:30:36.439Z,-1.20
2019-01-22T12:33:04.102Z,-1.20
2019-01-22T12:35:31.318Z,-1.00
2019-01-22T12:37:58.738Z,-1.30
2019-01-22T12:40:26.014Z,-1.00
2019-01-22T12:42:53.760Z,-0.90
2019-01-22T12:45:23.453Z,-1.00
2019-01-22T12:47:50.699Z,-1.40
2019-01-22T12:50:25.346Z,-1.40
2019-01-22T12:52:48.302Z,-1.30
2019-01-22T12:55:15.747Z,-1.30
2019-01-22T12:57:43.215Z,-1.40
2019-01-22T13:00:19.532Z,-1.60
2019-01-22T13:02:46.782Z,-1.60
2019-01-22T13:05:22.198Z,-1.30
2019-01-22T13:07:49.442Z,-1.20
2019-01-22T13:10:16.732Z,-1.10
2019-01-22T13:12:44.014Z,-1.10
2019-01-22T13:15:11.308Z,-1.00
2019-01-22T13:17:38.618Z,-0.80
2019-01-22T13:20:10.760Z,-0.90
2019-01-22T13:22:38.126Z,-0.80
2019-01-22T13:25:07.254Z,-0.70
2019-01-22T13:27:34.701Z,-0.70
2019-01-22T13:30:02.498Z,-0.90
2019-01-22T13:32:29.788Z,-1.10
2019-01-22T13:34:57.044Z,-0.90
2019-01-22T13:37:24.380Z,-0.90
2019-01-22T13:39:51.640Z,-1.00
2019-01-22T13:42:18.985Z,-0.70
2019-01-22T13:44:46.249Z,-0.80
2019-01-22T13:47:13.509Z,-0.90
2019-01-22T13:49:40.759Z,-1.00
2019-01-22T13:52:07.990Z,-1.30
2019-01-22T13:54:35.238Z,-1.50
2019-01-22T13:57:02.458Z,-1.60
2019-01-22T13:59:29.717Z,-2.00
2019-01-22T14:01:56.958Z,-2.10
2019-01-22T14:04:24.217Z,-2.20
2019-01-22T14:06:51.447Z,-2.40
2019-01-22T14:09:18.706Z,-2.50
2019-01-22T14:11:45.955Z,-2.60
2019-01-22T14:14:13.185Z,-2.80
2019-01-22T14:16:40.438Z,-2.80
2019-01-22T14:19:08.589Z,-2.80
2019-01-22T14:21:35.883Z,-2.90
2019-01-22T14:24:03.231Z,-3.00
2019-01-22T14:26:30.646Z,-3.10
2019-01-22T14:28:57.878Z,-3.30
2019-01-22T14:31:25.130Z,-3.10
2019-01-22T14:33:52.357Z,-3.00
2019-01-22T14:36:19.614Z,-3.20
2019-01-22T14:38:46.878Z,-3.40
2019-01-22T14:41:14.129Z,-3.10
2019-01-22T14:43:41.362Z,-3.30
2019-01-22T14:46:08.610Z,-3.20
2019-01-22T14:48:35.854Z,-2.80
2019-01-22T14:51:03.410Z,-3.20
2019-01-22T14:53:30.754Z,-3.20
2019-01-22T14:55:58.002Z,-3.30
2019-01-22T14:58:25.230Z,-2.90
2019-01-22T15:00:52.470Z,-2.90
2019-01-22T15:03:19.707Z,-2.60
2019-01-22T15:05:46.965Z,-2.60
2019-01-22T15:08:14.226Z,-2.40
2019-01-22T15:10:41.611Z,-2.10
2019-01-22T15:13:08.936Z,-2.20
2019-01-22T15:15:36.177Z,-2.30
2019-01-22T15:18:03.823Z,-2.10
2019-01-22T15:20:32.029Z,-2.00
2019-01-22T15:22:59.296Z,-2.00
2019-01-22T15:25:26.557Z,-2.00
2019-01-22T15:27:54.013Z,-2.10
2019-01-22T15:30:26.878Z,-2.50
2019-01-22T15:32:54.110Z,-2.90
2019-01-22T15:35:21.375Z,-3.00
2019-01-22T15:37:48.633Z,-2.80
2019-01-22T15:40:18.346Z,-2.70
2019-01-22T15:42:45.580Z,-2.50
2019-01-22T15:45:13.165Z,-2.20
2019-01-22T15:47:40.506Z,-2.10
2019-01-22T15:50:09.718Z,-2.10
2019-01-22T15:52:36.969Z,-2.00
2019-01-22T15:55:06.351Z,-1.90
2019-01-22T15:57:33.577Z,-1.80
2019-01-22T16:00:00.865Z,-2.60
2019-01-22T16:02:28.561Z,-2.80
2019-01-22T16:04:55.821Z,-2.80
2019-01-22T16:07:23.070Z,-3.00
2019-01-22T16:09:50.326Z,-2.60
2019-01-22T16:12:17.558Z,-2.70
2019-01-22T16:14:44.789Z,-2.30
2019-01-22T16:17:31.544Z,-2.20
2019-01-22T16:19:58.762Z,-2.10
2019-01-22T16:22:26.924Z,-2.30
2019-01-22T16:24:54.190Z,-2.30
2019-01-22T16:27:21.427Z,-2.30
2019-01-22T16:29:48.685Z,-2.10
2019-01-22T16:32:15.974Z,-2.00
2019-01-22T16:34:43.226Z,-2.00
2019-01-22T16:37:10.483Z,-2.20
2019-01-22T16:39:37.746Z,-2.20
2019-01-22T16:42:05.191Z,-2.20
2019-01-22T16:44:32.563Z,-2.20
2019-01-22T16:46:59.910Z,-2.40
2019-01-22T16:49:27.166Z,-2.30
2019-01-22T16:51:54.414Z,-2.80
2019-01-22T16:54:21.870Z,-2.50
2019-01-22T16:56:49.197Z,-2.60
2019-01-22T16:59:16.448Z,-2.70
2019-01-22T17:01:43.674Z,-2.60
2019-01-22T17:04:10.922Z,-2.90
2019-01-22T17:06:38.279Z,-3.00
2019-01-22T17:09:07.790Z,-3.10
2019-01-22T17:11:35.019Z,-3.10
2019-01-22T17:14:02.253Z,-3.30
2019-01-22T17:16:29.491Z,-3.00
2019-01-22T17:18:56.717Z,-3.10
2019-01-22T17:21:24.084Z,-2.90
2019-01-22T17:23:51.379Z,-2.90
2019-01-22T17:26:18.717Z,-2.80
2019-01-22T17:28:45.970Z,-2.60
2019-01-22T17:31:38.407Z,-2.70
2019-01-22T17:34:05.737Z,-2.90
2019-01-22T17:36:32.971Z,-2.90
2019-01-22T17:39:00.324Z,-2.90
2019-01-22T17:41:27.577Z,-3.40
2019-01-22T17:43:54.979Z,-3.90
2019-01-22T17:46:22.230Z,-4.10
2019-01-22T17:48:49.451Z,-4.10
2019-01-22T17:51:16.692Z,-4.20
2019-01-22T17:53:43.943Z,-4.10
2019-01-22T17:56:11.354Z,-4.00
2019-01-22T17:58:38.609Z,-4.00
2019-01-22T18:01:05.971Z,-3.50
2019-01-22T18:03:33.459Z,-3.20
2019-01-22T18:06:00.714Z,-3.00
2019-01-22T18:08:28.155Z,-2.80
2019-01-22T18:10:55.518Z,-2.70
2019-01-22T18:13:22.770Z,-3.10
2019-01-22T18:15:50.014Z,-3.70
2019-01-22T18:18:17.242Z,-3.60
2019-01-22T18:20:44.486Z,-3.50
2019-01-22T18:23:11.818Z,-3.20
2019-01-22T18:25:39.153Z,-2.90
2019-01-22T18:28:06.406Z,-2.70
2019-01-22T18:30:33.880Z,-2.90
2019-01-22T18:33:01.234Z,-2.80
2019-01-22T18:35:37.845Z,-2.90
2019-01-22T18:38:00.814Z,-2.90
2019-01-22T18:40:28.071Z,-3.00
2019-01-22T18:42:55.457Z,-2.90
2019-01-22T18:45:22.881Z,-2.80
2019-01-22T18:47:50.121Z,-3.20
2019-01-22T18:50:19.394Z,-3.40
2019-01-22T18:52:46.821Z,-3.40
2019-01-22T18:55:14.068Z,-4.10
2019-01-22T18:57:41.430Z,-4.40
2019-01-22T19:00:11.254Z,-4.70
2019-01-22T19:02:38.486Z,-4.60
2019-01-22T19:05:06.586Z,-4.60
2019-01-22T19:07:33.826Z,-4.90
2019-01-22T19:10:03.929Z,-4.90
2019-01-22T19:12:30.251Z,-4.40
2019-01-22T19:14:57.490Z,-3.80
2019-01-22T19:17:24.702Z,-3.50
2019-01-22T19:19:52.091Z,-3.90
2019-01-22T19:22:19.350Z,-4.40
2019-01-22T19:24:46.573Z,-4.40
2019-01-22T19:27:13.839Z,-4.40
2019-01-22T19:29:41.087Z,-4.40
2019-01-22T19:32:08.315Z,-4.30
2019-01-22T19:34:35.558Z,-4.30
2019-01-22T19:37:02.778Z,-4.90
2019-01-22T19:39:30.051Z,-4.70
2019-01-22T19:41:57.307Z,-4.60
2019-01-22T19:44:24.562Z,-4.40
2019-01-22T19:46:51.886Z,-4.60
2019-01-22T19:49:19.127Z,-4.90
2019-01-22T19:51:46.373Z,-5.40
2019-01-22T19:54:13.741Z,-5.40
2019-01-22T19:56:40.992Z,-5.40
2019-01-22T19:59:08.230Z,-5.60
2019-01-22T20:01:35.454Z,-5.70
2019-01-22T20:04:04.605Z,-5.70
2019-01-22T20:06:33.249Z,-5.70
2019-01-22T20:09:00.528Z,-5.70
2019-01-22T20:11:27.975Z,-5.50
2019-01-22T20:13:55.257Z,-4.90
2019-01-22T20:16:22.478Z,-4.70
2019-01-22T20:18:49.817Z,-4.80
2019-01-22T20:21:17.066Z,-4.90
2019-01-22T20:23:58.272Z,-4.90
2019-01-22T20:26:25.523Z,-4.90
2019-01-22T20:28:52.960Z,-4.80
2019-01-22T20:31:20.293Z,-5.20
2019-01-22T20:33:47.531Z,-5.10
2019-01-22T20:36:14.763Z,-4.80
2019-01-22T20:38:42.098Z,-4.90
2019-01-22T20:41:09.616Z,-4.80
2019-01-22T20:43:36.866Z,-4.60
2019-01-22T20:46:04.131Z,-4.60
2019-01-22T20:48:31.379Z,-4.90
2019-01-22T20:50:58.709Z,-5.20
2019-01-22T20:53:25.946Z,-5.20
2019-01-22T20:55:53.274Z,-5.40
2019-01-22T20:58:20.550Z,-5.20
2019-01-22T21:00:47.797Z,-5.30
2019-01-22T21:03:16.009Z,-5.40
2019-01-22T21:05:43.353Z,-5.40
2019-01-22T21:08:10.598Z,-5.40
2019-01-22T21:10:37.839Z,-4.80
2019-01-22T21:13:05.082Z,-4.50
2019-01-22T21:15:32.322Z,-4.30
2019-01-22T21:17:59.577Z,-4.20
2019-01-22T21:20:26.813Z,-4.50
2019-01-22T21:22:54.142Z,-4.80
2019-01-22T21:25:21.414Z,-5.00
2019-01-22T21:27:48.779Z,-4.80
2019-01-22T21:30:27.729Z,-4.80
2019-01-22T21:32:55.250Z,-4.60
2019-01-22T21:35:23.322Z,-4.20
2019-01-22T21:37:50.761Z,-4.20
2019-01-22T21:40:17.994Z,-4.00
2019-01-22T21:42:45.326Z,-4.20
2019-01-22T21:45:13.196Z,-4.20
2019-01-22T21:47:40.542Z,-4.20
2019-01-22T21:50:09.527Z,-4.40
2019-01-22T21:52:36.771Z,-4.60
2019-01-22T21:55:05.861Z,-5.00
2019-01-22T21:57:33.094Z,-5.20
2019-01-22T22:00:00.189Z,-4.90
2019-01-22T22:02:27.478Z,-4.50
2019-01-22T22:04:54.803Z,-4.30
2019-01-22T22:07:22.158Z,-4.00
2019-01-22T22:09:49.378Z,-4.70
2019-01-22T22:12:16.727Z,-4.70
2019-01-22T22:14:43.954Z,-4.50
2019-01-22T22:17:11.218Z,-4.60
2019-01-22T22:19:38.462Z,-4.50
2019-01-22T22:22:05.553Z,-4.10
2019-01-22T22:24:32.814Z,-3.90
2019-01-22T22:27:00.050Z,-3.80
2019-01-22T22:29:27.298Z,-4.30
2019-01-22T22:31:54.666Z,-4.60
2019-01-22T22:34:22.021Z,-4.80
2019-01-22T22:36:49.427Z,-4.70
2019-01-22T22:39:16.916Z,-4.40
2019-01-22T22:41:44.212Z,-4.30
2019-01-22T22:44:12.016Z,-4.40
2019-01-22T22:46:39.514Z,-4.40
2019-01-22T22:49:06.757Z,-4.50
2019-01-22T22:51:33.993Z,-4.50
2019-01-22T22:54:01.223Z,-4.40
2019-01-22T22:56:28.446Z,-4.60
2019-01-22T22:58:55.686Z,-4.20
2019-01-22T23:01:37.258Z,-4.20
2019-01-22T23:04:05.618Z,-4.30
2019-01-22T23:06:34.738Z,-4.50
2019-01-22T23:09:05.690Z,-4.50
2019-01-22T23:11:33.033Z,-4.70
2019-01-22T23:14:00.288Z,-4.50
2019-01-22T23:16:27.525Z,-4.50
2019-01-22T23:18:54.889Z,-4.20
2019-01-22T23:21:22.106Z,-3.90
2019-01-22T23:23:49.486Z,-3.80
2019-01-22T23:26:16.726Z,-3.60
2019-01-22T23:28:43.966Z,-3.50
2019-01-22T23:31:11.222Z,-3.40
2019-01-22T23:33:39.405Z,-3.40
2019-01-22T23:36:06.646Z,-3.30
2019-01-22T23:38:33.902Z,-3.30
2019-01-22T23:41:01.150Z,-3.40
2019-01-22T23:43:28.368Z,-3.60
2019-01-22T23:45:55.613Z,-3.40
2019-01-22T23:48:22.866Z,-3.30
2019-01-22T23:50:50.127Z,-3.40
2019-01-22T23:53:17.372Z,-3.60
2019-01-22T23:55:44.621Z,-3.50
2019-01-22T23:58:11.890Z,-3.30
